sensor_id;sensor_type;location;lat;lon;timestamp;P1;durP1;ratioP1;P2;durP2;ratioP2
35839;SDS011;35514;50.504;30.500;2023-06-26T00:00:51;14.40;;;7.40;;
35839;SDS011;35514;50.504;30.500;2023-06-26T00:03:18;16.33;;;7.05;;
35839;SDS011;35514;50.504;30.500;2023-06-26T00:05:46;13.00;;;6.75;;
35839;SDS011;35514;50.504;30.500;2023-06-26T00:08:15;12.07;;;7.30;;
35839;SDS011;35514;50.504;30.500;2023-06-26T00:10:43;15.52;;;6.85;;
35839;SDS011;35514;50.504;30.500;2023-06-26T00:13:12;11.40;;;6.75;;
35839;SDS011;35514;50.504;30.500;2023-06-26T00:15:40;17.35;;;7.25;;
35839;SDS011;35514;50.504;30.500;2023-06-26T00:18:08;12.32;;;6.95;;
35839;SDS011;35514;50.504;30.500;2023-06-26T00:20:35;18.90;;;9.20;;
35839;SDS011;35514;50.504;30.500;2023-06-26T00:23:04;18.95;;;7.82;;
35839;SDS011;35514;50.504;30.500;2023-06-26T00:25:35;15.98;;;7.35;;
35839;SDS011;35514;50.504;30.500;2023-06-26T00:28:03;13.38;;;7.78;;
35839;SDS011;35514;50.504;30.500;2023-06-26T00:30:30;13.80;;;7.55;;
35839;SDS011;35514;50.504;30.500;2023-06-26T00:32:58;10.68;;;6.75;;
35839;SDS011;35514;50.504;30.500;2023-06-26T00:35:26;16.38;;;7.68;;
35839;SDS011;35514;50.504;30.500;2023-06-26T00:37:54;16.70;;;7.57;;
35839;SDS011;35514;50.504;30.500;2023-06-26T00:40:21;11.63;;;7.78;;
35839;SDS011;35514;50.504;30.500;2023-06-26T00:42:51;11.95;;;7.25;;
35839;SDS011;35514;50.504;30.500;2023-06-26T00:45:18;14.05;;;7.80;;
35839;SDS011;35514;50.504;30.500;2023-06-26T00:48:06;12.60;;;7.00;;
35839;SDS011;35514;50.504;30.500;2023-06-26T00:50:34;13.82;;;7.55;;
35839;SDS011;35514;50.504;30.500;2023-06-26T00:53:02;12.82;;;7.53;;
35839;SDS011;35514;50.504;30.500;2023-06-26T00:55:30;13.32;;;7.75;;
35839;SDS011;35514;50.504;30.500;2023-06-26T00:57:59;15.13;;;7.07;;
35839;SDS011;35514;50.504;30.500;2023-06-26T01:00:27;13.40;;;7.03;;
35839;SDS011;35514;50.504;30.500;2023-06-26T01:02:55;13.98;;;7.68;;
35839;SDS011;35514;50.504;30.500;2023-06-26T01:05:26;14.93;;;7.57;;
35839;SDS011;35514;50.504;30.500;2023-06-26T01:07:54;14.15;;;7.50;;
35839;SDS011;35514;50.504;30.500;2023-06-26T01:10:22;13.35;;;7.40;;
35839;SDS011;35514;50.504;30.500;2023-06-26T01:12:54;12.05;;;7.15;;
35839;SDS011;35514;50.504;30.500;2023-06-26T01:15:23;14.70;;;7.75;;
35839;SDS011;35514;50.504;30.500;2023-06-26T01:17:51;16.73;;;7.45;;
35839;SDS011;35514;50.504;30.500;2023-06-26T01:20:19;11.60;;;6.80;;
35839;SDS011;35514;50.504;30.500;2023-06-26T01:22:48;13.13;;;7.32;;
35839;SDS011;35514;50.504;30.500;2023-06-26T01:25:20;15.90;;;7.57;;
35839;SDS011;35514;50.504;30.500;2023-06-26T01:27:50;11.65;;;6.63;;
35839;SDS011;35514;50.504;30.500;2023-06-26T01:30:20;11.70;;;6.75;;
35839;SDS011;35514;50.504;30.500;2023-06-26T01:32:48;14.63;;;5.97;;
35839;SDS011;35514;50.504;30.500;2023-06-26T01:35:17;11.38;;;5.75;;
35839;SDS011;35514;50.504;30.500;2023-06-26T01:37:45;12.27;;;6.85;;
35839;SDS011;35514;50.504;30.500;2023-06-26T01:40:13;12.52;;;6.85;;
35839;SDS011;35514;50.504;30.500;2023-06-26T01:42:40;13.88;;;6.22;;
35839;SDS011;35514;50.504;30.500;2023-06-26T01:45:12;11.07;;;6.22;;
35839;SDS011;35514;50.504;30.500;2023-06-26T01:47:40;11.20;;;6.07;;
35839;SDS011;35514;50.504;30.500;2023-06-26T01:50:12;10.60;;;5.72;;
35839;SDS011;35514;50.504;30.500;2023-06-26T01:52:42;8.82;;;4.47;;
35839;SDS011;35514;50.504;30.500;2023-06-26T01:55:12;12.80;;;5.15;;
35839;SDS011;35514;50.504;30.500;2023-06-26T01:57:42;10.13;;;5.68;;
35839;SDS011;35514;50.504;30.500;2023-06-26T02:00:11;7.15;;;4.70;;
35839;SDS011;35514;50.504;30.500;2023-06-26T02:02:40;9.38;;;5.18;;
35839;SDS011;35514;50.504;30.500;2023-06-26T02:05:09;10.05;;;5.70;;
35839;SDS011;35514;50.504;30.500;2023-06-26T02:07:37;11.23;;;5.65;;
35839;SDS011;35514;50.504;30.500;2023-06-26T02:10:05;9.80;;;5.55;;
35839;SDS011;35514;50.504;30.500;2023-06-26T02:12:33;10.73;;;6.03;;
35839;SDS011;35514;50.504;30.500;2023-06-26T02:15:02;10.65;;;5.47;;
35839;SDS011;35514;50.504;30.500;2023-06-26T02:17:31;13.18;;;5.60;;
35839;SDS011;35514;50.504;30.500;2023-06-26T02:19:59;10.32;;;6.20;;
35839;SDS011;35514;50.504;30.500;2023-06-26T02:22:27;10.60;;;5.63;;
35839;SDS011;35514;50.504;30.500;2023-06-26T02:24:55;10.43;;;5.22;;
35839;SDS011;35514;50.504;30.500;2023-06-26T02:27:23;10.90;;;5.47;;
35839;SDS011;35514;50.504;30.500;2023-06-26T02:29:51;11.45;;;6.13;;
35839;SDS011;35514;50.504;30.500;2023-06-26T02:32:19;9.88;;;5.05;;
35839;SDS011;35514;50.504;30.500;2023-06-26T02:34:48;8.27;;;5.10;;
35839;SDS011;35514;50.504;30.500;2023-06-26T02:37:18;9.68;;;5.97;;
35839;SDS011;35514;50.504;30.500;2023-06-26T02:39:46;10.05;;;4.57;;
35839;SDS011;35514;50.504;30.500;2023-06-26T02:42:14;7.07;;;4.07;;
35839;SDS011;35514;50.504;30.500;2023-06-26T02:44:41;12.68;;;4.75;;
35839;SDS011;35514;50.504;30.500;2023-06-26T02:47:09;12.65;;;5.32;;
35839;SDS011;35514;50.504;30.500;2023-06-26T02:49:37;10.55;;;5.03;;
35839;SDS011;35514;50.504;30.500;2023-06-26T02:52:06;9.30;;;4.90;;
35839;SDS011;35514;50.504;30.500;2023-06-26T02:54:34;9.68;;;4.78;;
35839;SDS011;35514;50.504;30.500;2023-06-26T02:57:02;8.27;;;4.63;;
35839;SDS011;35514;50.504;30.500;2023-06-26T02:59:29;12.38;;;4.45;;
35839;SDS011;35514;50.504;30.500;2023-06-26T03:01:57;10.38;;;5.45;;
35839;SDS011;35514;50.504;30.500;2023-06-26T03:04:25;10.60;;;5.10;;
35839;SDS011;35514;50.504;30.500;2023-06-26T03:06:53;7.80;;;4.28;;
35839;SDS011;35514;50.504;30.500;2023-06-26T03:09:22;8.73;;;4.68;;
35839;SDS011;35514;50.504;30.500;2023-06-26T03:11:50;12.20;;;5.13;;
35839;SDS011;35514;50.504;30.500;2023-06-26T03:14:19;8.27;;;4.68;;
35839;SDS011;35514;50.504;30.500;2023-06-26T03:16:47;12.30;;;5.40;;
35839;SDS011;35514;50.504;30.500;2023-06-26T03:19:15;9.93;;;4.75;;
35839;SDS011;35514;50.504;30.500;2023-06-26T03:21:43;11.80;;;6.10;;
35839;SDS011;35514;50.504;30.500;2023-06-26T03:24:11;9.98;;;5.22;;
35839;SDS011;35514;50.504;30.500;2023-06-26T03:26:40;8.57;;;4.70;;
35839;SDS011;35514;50.504;30.500;2023-06-26T03:29:08;8.13;;;4.85;;
35839;SDS011;35514;50.504;30.500;2023-06-26T03:31:36;10.43;;;5.25;;
35839;SDS011;35514;50.504;30.500;2023-06-26T03:34:03;9.23;;;5.55;;
35839;SDS011;35514;50.504;30.500;2023-06-26T03:36:31;9.30;;;5.03;;
35839;SDS011;35514;50.504;30.500;2023-06-26T03:38:59;11.40;;;5.28;;
35839;SDS011;35514;50.504;30.500;2023-06-26T03:41:27;10.95;;;5.20;;
35839;SDS011;35514;50.504;30.500;2023-06-26T03:43:56;9.18;;;5.28;;
35839;SDS011;35514;50.504;30.500;2023-06-26T03:46:24;10.30;;;4.90;;
35839;SDS011;35514;50.504;30.500;2023-06-26T03:48:52;9.13;;;4.95;;
35839;SDS011;35514;50.504;30.500;2023-06-26T03:51:19;10.27;;;5.53;;
35839;SDS011;35514;50.504;30.500;2023-06-26T03:53:47;12.48;;;6.03;;
35839;SDS011;35514;50.504;30.500;2023-06-26T03:56:15;9.93;;;5.25;;
35839;SDS011;35514;50.504;30.500;2023-06-26T03:58:43;13.68;;;5.82;;
35839;SDS011;35514;50.504;30.500;2023-06-26T04:01:12;12.98;;;6.32;;
35839;SDS011;35514;50.504;30.500;2023-06-26T04:03:40;9.20;;;5.05;;
35839;SDS011;35514;50.504;30.500;2023-06-26T04:06:07;11.68;;;6.93;;
35839;SDS011;35514;50.504;30.500;2023-06-26T04:08:36;12.38;;;5.45;;
35839;SDS011;35514;50.504;30.500;2023-06-26T04:11:03;13.75;;;5.40;;
35839;SDS011;35514;50.504;30.500;2023-06-26T04:13:31;14.18;;;5.50;;
35839;SDS011;35514;50.504;30.500;2023-06-26T04:15:59;10.45;;;4.82;;
35839;SDS011;35514;50.504;30.500;2023-06-26T04:18:29;9.15;;;5.68;;
35839;SDS011;35514;50.504;30.500;2023-06-26T04:21:07;13.05;;;5.53;;
35839;SDS011;35514;50.504;30.500;2023-06-26T04:23:35;12.35;;;6.25;;
35839;SDS011;35514;50.504;30.500;2023-06-26T04:26:03;9.23;;;5.28;;
35839;SDS011;35514;50.504;30.500;2023-06-26T04:28:31;10.55;;;5.40;;
35839;SDS011;35514;50.504;30.500;2023-06-26T04:30:59;8.95;;;5.38;;
35839;SDS011;35514;50.504;30.500;2023-06-26T04:33:28;10.07;;;5.18;;
35839;SDS011;35514;50.504;30.500;2023-06-26T04:35:56;9.30;;;5.03;;
35839;SDS011;35514;50.504;30.500;2023-06-26T04:38:24;12.43;;;5.78;;
35839;SDS011;35514;50.504;30.500;2023-06-26T04:40:52;13.23;;;5.65;;
35839;SDS011;35514;50.504;30.500;2023-06-26T04:43:20;16.90;;;5.30;;
35839;SDS011;35514;50.504;30.500;2023-06-26T04:45:47;8.07;;;4.60;;
35839;SDS011;35514;50.504;30.500;2023-06-26T04:48:15;10.23;;;4.78;;
35839;SDS011;35514;50.504;30.500;2023-06-26T04:50:45;9.93;;;5.15;;
35839;SDS011;35514;50.504;30.500;2023-06-26T04:53:24;13.18;;;5.07;;
35839;SDS011;35514;50.504;30.500;2023-06-26T04:55:52;10.13;;;5.55;;
35839;SDS011;35514;50.504;30.500;2023-06-26T04:58:20;8.88;;;4.90;;
35839;SDS011;35514;50.504;30.500;2023-06-26T05:00:48;11.18;;;5.82;;
35839;SDS011;35514;50.504;30.500;2023-06-26T05:03:16;14.13;;;5.13;;
35839;SDS011;35514;50.504;30.500;2023-06-26T05:05:46;9.90;;;5.78;;
35839;SDS011;35514;50.504;30.500;2023-06-26T05:08:15;11.20;;;6.15;;
35839;SDS011;35514;50.504;30.500;2023-06-26T05:10:43;9.20;;;5.20;;
35839;SDS011;35514;50.504;30.500;2023-06-26T05:13:12;12.43;;;6.20;;
35839;SDS011;35514;50.504;30.500;2023-06-26T05:15:41;8.80;;;5.38;;
35839;SDS011;35514;50.504;30.500;2023-06-26T05:18:09;8.88;;;5.20;;
35839;SDS011;35514;50.504;30.500;2023-06-26T05:20:37;9.35;;;5.43;;
35839;SDS011;35514;50.504;30.500;2023-06-26T05:23:07;8.60;;;5.38;;
35839;SDS011;35514;50.504;30.500;2023-06-26T05:25:38;7.45;;;4.65;;
35839;SDS011;35514;50.504;30.500;2023-06-26T05:28:06;12.02;;;5.50;;
35839;SDS011;35514;50.504;30.500;2023-06-26T05:30:36;10.38;;;4.85;;
35839;SDS011;35514;50.504;30.500;2023-06-26T05:33:05;8.57;;;4.57;;
35839;SDS011;35514;50.504;30.500;2023-06-26T05:35:34;9.13;;;4.40;;
35839;SDS011;35514;50.504;30.500;2023-06-26T05:38:03;9.48;;;4.88;;
35839;SDS011;35514;50.504;30.500;2023-06-26T05:40:33;8.23;;;4.93;;
35839;SDS011;35514;50.504;30.500;2023-06-26T05:43:02;7.30;;;4.32;;
35839;SDS011;35514;50.504;30.500;2023-06-26T05:45:30;9.45;;;4.35;;
35839;SDS011;35514;50.504;30.500;2023-06-26T05:47:59;9.30;;;4.60;;
35839;SDS011;35514;50.504;30.500;2023-06-26T05:50:27;7.65;;;4.03;;
35839;SDS011;35514;50.504;30.500;2023-06-26T05:52:55;6.25;;;4.32;;
35839;SDS011;35514;50.504;30.500;2023-06-26T05:55:23;7.20;;;4.43;;
35839;SDS011;35514;50.504;30.500;2023-06-26T05:57:52;6.60;;;3.85;;
35839;SDS011;35514;50.504;30.500;2023-06-26T06:00:21;9.20;;;4.78;;
35839;SDS011;35514;50.504;30.500;2023-06-26T06:02:49;10.27;;;4.60;;
35839;SDS011;35514;50.504;30.500;2023-06-26T06:05:21;8.10;;;4.40;;
35839;SDS011;35514;50.504;30.500;2023-06-26T06:07:48;9.43;;;4.93;;
35839;SDS011;35514;50.504;30.500;2023-06-26T06:10:16;9.82;;;4.10;;
35839;SDS011;35514;50.504;30.500;2023-06-26T06:12:44;5.50;;;3.30;;
35839;SDS011;35514;50.504;30.500;2023-06-26T06:15:14;5.78;;;3.17;;
35839;SDS011;35514;50.504;30.500;2023-06-26T06:17:42;4.75;;;3.63;;
35839;SDS011;35514;50.504;30.500;2023-06-26T06:20:10;5.65;;;3.25;;
35839;SDS011;35514;50.504;30.500;2023-06-26T06:22:39;4.00;;;2.45;;
35839;SDS011;35514;50.504;30.500;2023-06-26T06:25:07;6.75;;;2.45;;
35839;SDS011;35514;50.504;30.500;2023-06-26T06:27:34;4.47;;;2.88;;
35839;SDS011;35514;50.504;30.500;2023-06-26T06:30:02;4.40;;;2.72;;
35839;SDS011;35514;50.504;30.500;2023-06-26T06:32:35;7.35;;;3.20;;
35839;SDS011;35514;50.504;30.500;2023-06-26T06:35:03;5.13;;;3.08;;
35839;SDS011;35514;50.504;30.500;2023-06-26T06:37:36;7.28;;;3.80;;
35839;SDS011;35514;50.504;30.500;2023-06-26T06:40:05;6.50;;;3.03;;
35839;SDS011;35514;50.504;30.500;2023-06-26T06:42:34;6.60;;;2.85;;
35839;SDS011;35514;50.504;30.500;2023-06-26T06:45:02;4.55;;;3.17;;
35839;SDS011;35514;50.504;30.500;2023-06-26T06:47:31;4.22;;;2.88;;
35839;SDS011;35514;50.504;30.500;2023-06-26T06:50:08;8.50;;;3.15;;
35839;SDS011;35514;50.504;30.500;2023-06-26T06:52:45;6.03;;;3.47;;
35839;SDS011;35514;50.504;30.500;2023-06-26T06:55:13;5.45;;;3.25;;
35839;SDS011;35514;50.504;30.500;2023-06-26T06:57:40;5.82;;;3.35;;
35839;SDS011;35514;50.504;30.500;2023-06-26T07:00:09;4.13;;;2.70;;
35839;SDS011;35514;50.504;30.500;2023-06-26T07:02:37;4.53;;;2.72;;
35839;SDS011;35514;50.504;30.500;2023-06-26T07:05:07;4.57;;;2.67;;
35839;SDS011;35514;50.504;30.500;2023-06-26T07:07:35;5.63;;;3.38;;
35839;SDS011;35514;50.504;30.500;2023-06-26T07:10:04;6.88;;;3.63;;
35839;SDS011;35514;50.504;30.500;2023-06-26T07:12:32;8.32;;;3.55;;
35839;SDS011;35514;50.504;30.500;2023-06-26T07:15:00;5.57;;;3.28;;
35839;SDS011;35514;50.504;30.500;2023-06-26T07:17:29;5.20;;;2.78;;
35839;SDS011;35514;50.504;30.500;2023-06-26T07:19:57;4.30;;;2.70;;
35839;SDS011;35514;50.504;30.500;2023-06-26T07:22:26;4.40;;;3.05;;
35839;SDS011;35514;50.504;30.500;2023-06-26T07:24:54;3.83;;;2.70;;
35839;SDS011;35514;50.504;30.500;2023-06-26T07:27:21;4.75;;;2.80;;
35839;SDS011;35514;50.504;30.500;2023-06-26T07:29:49;3.17;;;2.25;;
35839;SDS011;35514;50.504;30.500;2023-06-26T07:32:17;6.60;;;2.60;;
35839;SDS011;35514;50.504;30.500;2023-06-26T07:34:45;3.35;;;2.13;;
35839;SDS011;35514;50.504;30.500;2023-06-26T07:37:12;9.55;;;2.65;;
35839;SDS011;35514;50.504;30.500;2023-06-26T07:39:42;9.80;;;2.85;;
35839;SDS011;35514;50.504;30.500;2023-06-26T07:42:09;4.55;;;2.40;;
35839;SDS011;35514;50.504;30.500;2023-06-26T07:44:37;4.57;;;2.53;;
35839;SDS011;35514;50.504;30.500;2023-06-26T07:47:06;4.63;;;2.80;;
35839;SDS011;35514;50.504;30.500;2023-06-26T07:49:34;4.03;;;2.58;;
35839;SDS011;35514;50.504;30.500;2023-06-26T07:52:02;4.70;;;2.78;;
35839;SDS011;35514;50.504;30.500;2023-06-26T07:54:30;4.63;;;2.53;;
35839;SDS011;35514;50.504;30.500;2023-06-26T07:57:00;5.88;;;3.10;;
35839;SDS011;35514;50.504;30.500;2023-06-26T07:59:29;3.53;;;2.17;;
35839;SDS011;35514;50.504;30.500;2023-06-26T08:01:57;4.53;;;2.30;;
35839;SDS011;35514;50.504;30.500;2023-06-26T08:04:25;3.72;;;2.58;;
35839;SDS011;35514;50.504;30.500;2023-06-26T08:06:54;10.60;;;2.05;;
35839;SDS011;35514;50.504;30.500;2023-06-26T08:09:23;5.65;;;1.92;;
35839;SDS011;35514;50.504;30.500;2023-06-26T08:11:51;3.10;;;2.03;;
35839;SDS011;35514;50.504;30.500;2023-06-26T08:14:20;1.77;;;1.60;;
35839;SDS011;35514;50.504;30.500;2023-06-26T08:16:49;2.78;;;1.48;;
35839;SDS011;35514;50.504;30.500;2023-06-26T08:19:17;4.07;;;1.40;;
35839;SDS011;35514;50.504;30.500;2023-06-26T08:21:45;2.00;;;1.27;;
35839;SDS011;35514;50.504;30.500;2023-06-26T08:24:13;1.88;;;1.60;;
35839;SDS011;35514;50.504;30.500;2023-06-26T08:26:42;1.38;;;1.20;;
35839;SDS011;35514;50.504;30.500;2023-06-26T08:29:10;2.58;;;1.73;;
35839;SDS011;35514;50.504;30.500;2023-06-26T08:31:43;2.60;;;1.60;;
35839;SDS011;35514;50.504;30.500;2023-06-26T08:34:11;1.75;;;1.33;;
35839;SDS011;35514;50.504;30.500;2023-06-26T08:36:39;1.80;;;1.30;;
35839;SDS011;35514;50.504;30.500;2023-06-26T08:39:07;1.70;;;1.20;;
35839;SDS011;35514;50.504;30.500;2023-06-26T08:41:36;2.97;;;1.27;;
35839;SDS011;35514;50.504;30.500;2023-06-26T08:44:06;1.77;;;1.10;;
35839;SDS011;35514;50.504;30.500;2023-06-26T08:46:34;3.40;;;1.20;;
35839;SDS011;35514;50.504;30.500;2023-06-26T08:49:04;1.48;;;0.73;;
35839;SDS011;35514;50.504;30.500;2023-06-26T08:51:37;1.40;;;1.08;;
35839;SDS011;35514;50.504;30.500;2023-06-26T08:54:06;0.80;;;0.70;;
35839;SDS011;35514;50.504;30.500;2023-06-26T08:56:37;1.02;;;0.93;;
35839;SDS011;35514;50.504;30.500;2023-06-26T08:59:05;2.40;;;1.02;;
35839;SDS011;35514;50.504;30.500;2023-06-26T09:01:34;4.43;;;1.33;;
35839;SDS011;35514;50.504;30.500;2023-06-26T09:04:02;1.48;;;0.85;;
35839;SDS011;35514;50.504;30.500;2023-06-26T09:06:31;0.80;;;0.73;;
35839;SDS011;35514;50.504;30.500;2023-06-26T09:08:59;2.05;;;1.10;;
35839;SDS011;35514;50.504;30.500;2023-06-26T09:11:27;3.10;;;1.10;;
35839;SDS011;35514;50.504;30.500;2023-06-26T09:13:55;1.42;;;0.98;;
35839;SDS011;35514;50.504;30.500;2023-06-26T09:16:24;1.17;;;0.73;;
35839;SDS011;35514;50.504;30.500;2023-06-26T09:18:53;3.13;;;0.80;;
35839;SDS011;35514;50.504;30.500;2023-06-26T09:21:21;1.25;;;0.80;;
35839;SDS011;35514;50.504;30.500;2023-06-26T09:23:50;1.63;;;1.05;;
35839;SDS011;35514;50.504;30.500;2023-06-26T09:26:20;2.10;;;1.08;;
35839;SDS011;35514;50.504;30.500;2023-06-26T09:28:49;1.98;;;1.10;;
35839;SDS011;35514;50.504;30.500;2023-06-26T09:31:17;1.38;;;1.00;;
35839;SDS011;35514;50.504;30.500;2023-06-26T09:34:15;1.73;;;1.27;;
35839;SDS011;35514;50.504;30.500;2023-06-26T09:36:43;8.85;;;1.13;;
35839;SDS011;35514;50.504;30.500;2023-06-26T09:39:14;1.60;;;1.00;;
35839;SDS011;35514;50.504;30.500;2023-06-26T09:41:42;2.17;;;1.60;;
35839;SDS011;35514;50.504;30.500;2023-06-26T09:44:12;1.67;;;1.08;;
35839;SDS011;35514;50.504;30.500;2023-06-26T09:46:40;2.42;;;1.40;;
35839;SDS011;35514;50.504;30.500;2023-06-26T09:49:09;2.03;;;1.30;;
35839;SDS011;35514;50.504;30.500;2023-06-26T09:51:37;3.75;;;1.77;;
35839;SDS011;35514;50.504;30.500;2023-06-26T09:54:05;7.95;;;1.05;;
35839;SDS011;35514;50.504;30.500;2023-06-26T09:56:35;1.35;;;0.90;;
35839;SDS011;35514;50.504;30.500;2023-06-26T09:59:03;3.85;;;1.80;;
35839;SDS011;35514;50.504;30.500;2023-06-26T10:01:31;2.05;;;1.20;;
35839;SDS011;35514;50.504;30.500;2023-06-26T10:04:00;2.72;;;1.30;;
35839;SDS011;35514;50.504;30.500;2023-06-26T10:06:33;2.83;;;1.45;;
35839;SDS011;35514;50.504;30.500;2023-06-26T10:09:02;1.88;;;1.20;;
35839;SDS011;35514;50.504;30.500;2023-06-26T10:11:31;1.45;;;0.90;;
35839;SDS011;35514;50.504;30.500;2023-06-26T10:14:01;4.82;;;1.88;;
35839;SDS011;35514;50.504;30.500;2023-06-26T10:16:43;2.10;;;1.40;;
35839;SDS011;35514;50.504;30.500;2023-06-26T10:19:11;3.33;;;1.10;;
35839;SDS011;35514;50.504;30.500;2023-06-26T10:21:40;2.40;;;1.00;;
35839;SDS011;35514;50.504;30.500;2023-06-26T10:24:08;4.10;;;1.20;;
35839;SDS011;35514;50.504;30.500;2023-06-26T10:26:40;2.33;;;1.23;;
35839;SDS011;35514;50.504;30.500;2023-06-26T10:29:11;3.53;;;1.08;;
35839;SDS011;35514;50.504;30.500;2023-06-26T10:31:39;1.95;;;1.30;;
35839;SDS011;35514;50.504;30.500;2023-06-26T10:34:07;1.98;;;1.10;;
35839;SDS011;35514;50.504;30.500;2023-06-26T10:36:35;3.03;;;1.17;;
35839;SDS011;35514;50.504;30.500;2023-06-26T10:39:04;2.05;;;1.20;;
35839;SDS011;35514;50.504;30.500;2023-06-26T10:41:41;1.70;;;1.27;;
35839;SDS011;35514;50.504;30.500;2023-06-26T10:44:30;1.88;;;0.98;;
35839;SDS011;35514;50.504;30.500;2023-06-26T10:47:07;1.60;;;1.02;;
35839;SDS011;35514;50.504;30.500;2023-06-26T10:49:35;2.00;;;0.90;;
35839;SDS011;35514;50.504;30.500;2023-06-26T10:52:03;1.60;;;0.80;;
35839;SDS011;35514;50.504;30.500;2023-06-26T10:54:32;2.13;;;1.02;;
35839;SDS011;35514;50.504;30.500;2023-06-26T10:57:00;2.08;;;1.30;;
35839;SDS011;35514;50.504;30.500;2023-06-26T10:59:29;1.80;;;1.08;;
35839;SDS011;35514;50.504;30.500;2023-06-26T11:01:59;2.10;;;1.30;;
35839;SDS011;35514;50.504;30.500;2023-06-26T11:04:38;3.83;;;1.33;;
35839;SDS011;35514;50.504;30.500;2023-06-26T11:07:16;1.90;;;1.17;;
35839;SDS011;35514;50.504;30.500;2023-06-26T11:09:55;5.88;;;1.15;;
35839;SDS011;35514;50.504;30.500;2023-06-26T11:12:38;1.65;;;1.10;;
35839;SDS011;35514;50.504;30.500;2023-06-26T11:15:09;4.20;;;1.27;;
35839;SDS011;35514;50.504;30.500;2023-06-26T11:17:38;3.25;;;1.35;;
35839;SDS011;35514;50.504;30.500;2023-06-26T11:20:07;2.30;;;1.38;;
35839;SDS011;35514;50.504;30.500;2023-06-26T11:22:36;3.15;;;1.60;;
35839;SDS011;35514;50.504;30.500;2023-06-26T11:25:04;4.75;;;1.30;;
35839;SDS011;35514;50.504;30.500;2023-06-26T11:27:37;2.33;;;1.38;;
35839;SDS011;35514;50.504;30.500;2023-06-26T11:30:07;3.28;;;1.38;;
35839;SDS011;35514;50.504;30.500;2023-06-26T11:32:36;2.72;;;1.20;;
35839;SDS011;35514;50.504;30.500;2023-06-26T11:35:05;3.88;;;1.75;;
35839;SDS011;35514;50.504;30.500;2023-06-26T11:37:33;2.28;;;1.08;;
35839;SDS011;35514;50.504;30.500;2023-06-26T11:40:15;4.53;;;1.35;;
35839;SDS011;35514;50.504;30.500;2023-06-26T11:42:44;2.30;;;1.17;;
35839;SDS011;35514;50.504;30.500;2023-06-26T11:45:12;2.42;;;1.20;;
35839;SDS011;35514;50.504;30.500;2023-06-26T11:47:39;1.20;;;1.00;;
35839;SDS011;35514;50.504;30.500;2023-06-26T11:50:14;4.78;;;1.10;;
35839;SDS011;35514;50.504;30.500;2023-06-26T11:52:45;2.13;;;1.00;;
35839;SDS011;35514;50.504;30.500;2023-06-26T11:55:24;1.83;;;1.23;;
35839;SDS011;35514;50.504;30.500;2023-06-26T11:57:54;2.42;;;1.52;;
35839;SDS011;35514;50.504;30.500;2023-06-26T12:00:23;2.42;;;1.33;;
35839;SDS011;35514;50.504;30.500;2023-06-26T12:02:50;2.20;;;1.40;;
35839;SDS011;35514;50.504;30.500;2023-06-26T12:05:26;2.78;;;1.33;;
35839;SDS011;35514;50.504;30.500;2023-06-26T12:07:56;1.40;;;1.17;;
35839;SDS011;35514;50.504;30.500;2023-06-26T12:10:26;2.17;;;1.35;;
35839;SDS011;35514;50.504;30.500;2023-06-26T12:12:54;1.65;;;1.30;;
35839;SDS011;35514;50.504;30.500;2023-06-26T12:15:25;1.77;;;1.00;;
35839;SDS011;35514;50.504;30.500;2023-06-26T12:17:53;2.17;;;1.50;;
35839;SDS011;35514;50.504;30.500;2023-06-26T12:20:21;1.85;;;1.30;;
35839;SDS011;35514;50.504;30.500;2023-06-26T12:22:51;1.50;;;1.15;;
35839;SDS011;35514;50.504;30.500;2023-06-26T12:25:21;1.67;;;1.45;;
35839;SDS011;35514;50.504;30.500;2023-06-26T12:27:50;2.67;;;1.45;;
35839;SDS011;35514;50.504;30.500;2023-06-26T12:30:18;2.17;;;1.50;;
35839;SDS011;35514;50.504;30.500;2023-06-26T12:32:46;1.95;;;1.27;;
35839;SDS011;35514;50.504;30.500;2023-06-26T12:35:15;4.40;;;1.50;;
35839;SDS011;35514;50.504;30.500;2023-06-26T12:37:43;2.72;;;1.67;;
35839;SDS011;35514;50.504;30.500;2023-06-26T12:40:20;1.63;;;1.23;;
35839;SDS011;35514;50.504;30.500;2023-06-26T12:42:49;3.22;;;1.30;;
35839;SDS011;35514;50.504;30.500;2023-06-26T12:45:17;3.45;;;1.30;;
35839;SDS011;35514;50.504;30.500;2023-06-26T12:47:49;2.55;;;1.38;;
35839;SDS011;35514;50.504;30.500;2023-06-26T12:50:17;1.35;;;1.05;;
35839;SDS011;35514;50.504;30.500;2023-06-26T12:52:45;5.53;;;1.50;;
35839;SDS011;35514;50.504;30.500;2023-06-26T12:55:13;1.73;;;1.20;;
35839;SDS011;35514;50.504;30.500;2023-06-26T12:57:42;6.68;;;1.35;;
35839;SDS011;35514;50.504;30.500;2023-06-26T13:00:11;1.30;;;1.05;;
35839;SDS011;35514;50.504;30.500;2023-06-26T13:02:39;1.45;;;1.05;;
35839;SDS011;35514;50.504;30.500;2023-06-26T13:05:08;2.03;;;1.48;;
35839;SDS011;35514;50.504;30.500;2023-06-26T13:07:35;4.25;;;1.45;;
35839;SDS011;35514;50.504;30.500;2023-06-26T13:10:03;5.13;;;1.70;;
35839;SDS011;35514;50.504;30.500;2023-06-26T13:12:32;1.90;;;1.10;;
35839;SDS011;35514;50.504;30.500;2023-06-26T13:15:03;3.75;;;1.40;;
35839;SDS011;35514;50.504;30.500;2023-06-26T13:17:32;4.72;;;1.50;;
35839;SDS011;35514;50.504;30.500;2023-06-26T13:20:00;2.38;;;1.25;;
35839;SDS011;35514;50.504;30.500;2023-06-26T13:22:27;3.80;;;1.48;;
35839;SDS011;35514;50.504;30.500;2023-06-26T13:24:55;1.77;;;1.17;;
35839;SDS011;35514;50.504;30.500;2023-06-26T13:27:26;2.25;;;1.33;;
35839;SDS011;35514;50.504;30.500;2023-06-26T13:29:53;2.58;;;0.90;;
35839;SDS011;35514;50.504;30.500;2023-06-26T13:32:23;1.52;;;1.02;;
35839;SDS011;35514;50.504;30.500;2023-06-26T13:34:51;1.63;;;1.30;;
35839;SDS011;35514;50.504;30.500;2023-06-26T13:37:18;2.13;;;1.10;;
35839;SDS011;35514;50.504;30.500;2023-06-26T13:39:46;2.28;;;1.20;;
35839;SDS011;35514;50.504;30.500;2023-06-26T13:42:16;2.30;;;1.20;;
35839;SDS011;35514;50.504;30.500;2023-06-26T13:44:44;2.13;;;1.23;;
35839;SDS011;35514;50.504;30.500;2023-06-26T13:47:28;1.67;;;1.10;;
35839;SDS011;35514;50.504;30.500;2023-06-26T13:49:56;1.65;;;1.05;;
35839;SDS011;35514;50.504;30.500;2023-06-26T13:52:24;3.35;;;1.20;;
35839;SDS011;35514;50.504;30.500;2023-06-26T13:54:52;2.25;;;1.40;;
35839;SDS011;35514;50.504;30.500;2023-06-26T13:57:19;1.75;;;1.48;;
35839;SDS011;35514;50.504;30.500;2023-06-26T13:59:48;2.40;;;1.20;;
35839;SDS011;35514;50.504;30.500;2023-06-26T14:02:16;3.00;;;1.30;;
35839;SDS011;35514;50.504;30.500;2023-06-26T14:04:45;1.90;;;1.20;;
35839;SDS011;35514;50.504;30.500;2023-06-26T14:07:13;3.08;;;1.23;;
35839;SDS011;35514;50.504;30.500;2023-06-26T14:09:42;3.38;;;1.17;;
35839;SDS011;35514;50.504;30.500;2023-06-26T14:12:10;3.17;;;1.48;;
35839;SDS011;35514;50.504;30.500;2023-06-26T14:14:37;4.45;;;1.40;;
35839;SDS011;35514;50.504;30.500;2023-06-26T14:17:05;2.53;;;1.70;;
35839;SDS011;35514;50.504;30.500;2023-06-26T14:19:35;1.98;;;1.27;;
35839;SDS011;35514;50.504;30.500;2023-06-26T14:22:05;2.72;;;1.30;;
35839;SDS011;35514;50.504;30.500;2023-06-26T14:24:32;1.60;;;1.20;;
35839;SDS011;35514;50.504;30.500;2023-06-26T14:27:00;2.40;;;1.40;;
35839;SDS011;35514;50.504;30.500;2023-06-26T14:29:29;2.10;;;1.35;;
35839;SDS011;35514;50.504;30.500;2023-06-26T14:31:57;5.97;;;1.67;;
35839;SDS011;35514;50.504;30.500;2023-06-26T14:34:25;2.42;;;1.40;;
35839;SDS011;35514;50.504;30.500;2023-06-26T14:36:52;4.90;;;1.63;;
35839;SDS011;35514;50.504;30.500;2023-06-26T14:39:21;4.18;;;1.52;;
35839;SDS011;35514;50.504;30.500;2023-06-26T14:41:50;3.75;;;1.90;;